Time;durP1;ratioP1;P1;durP2;ratioP2;P2;SDS_P1;SDS_P2;PMS_P1;PMS_P2;Temp;Humidity;BMP_temperature;BMP_pressure;BME280_temperature;BME280_humidity;BME280_pressure;Samples;Min_cycle;Max_cycle;Signal;HPM_P1;HPM_P2
2023/10/23 00:00:59;;;;;;;6.17;4.47;;;13.80;99.90;;;;;;5001612;28;20192;-75
2023/10/23 00:03:25;;;;;;;9.10;4.90;;;13.70;99.90;;;;;;4993371;28;20209;-76
2023/10/23 00:05:50;;;;;;;7.40;5.40;;;13.70;99.90;;;;;;4997235;28;20695;-75
2023/10/23 00:08:16;;;;;;;9.93;5.23;;;13.70;99.90;;;;;;4995176;28;20758;-75
2023/10/23 00:10:44;;;;;;;9.70;5.57;;;13.70;99.90;;;;;;4997098;28;20194;-74
2023/10/23 00:13:10;;;;;;;8.00;5.27;;;13.60;99.90;;;;;;4994753;28;20177;-74
2023/10/23 00:15:36;;;;;;;14.37;4.77;;;13.60;99.90;;;;;;4990132;28;20440;-74
2023/10/23 00:18:02;;;;;;;6.80;4.13;;;13.60;99.90;;;;;;4993747;28;20830;-77
2023/10/23 00:20:28;;;;;;;11.20;4.70;;;13.60;99.90;;;;;;4997014;28;20246;-76
2023/10/23 00:22:53;;;;;;;7.67;5.20;;;13.50;99.90;;;;;;4998996;28;20185;-75
2023/10/23 00:25:19;;;;;;;6.67;4.87;;;13.50;99.90;;;;;;4996737;28;20205;-76
2023/10/23 00:27:45;;;;;;;11.73;4.90;;;13.50;99.90;;;;;;4994913;28;20656;-75
2023/10/23 00:30:11;;;;;;;9.43;4.70;;;13.50;99.90;;;;;;4989235;28;20208;-75
2023/10/23 00:32:36;;;;;;;8.17;4.67;;;13.50;99.90;;;;;;4999450;28;20181;-75
2023/10/23 00:35:02;;;;;;;8.10;4.80;;;13.40;99.90;;;;;;4989464;28;20190;-76
2023/10/23 00:37:28;;;;;;;9.13;4.20;;;13.40;99.90;;;;;;4991526;28;20186;-76
2023/10/23 00:39:53;;;;;;;13.20;4.63;;;13.40;99.90;;;;;;4994865;28;20292;-75
2023/10/23 00:42:19;;;;;;;5.80;4.07;;;13.40;99.90;;;;;;4993349;28;20243;-75
2023/10/23 00:44:44;;;;;;;6.37;4.47;;;13.40;99.90;;;;;;4996906;28;20290;-75
2023/10/23 00:47:10;;;;;;;7.27;4.70;;;13.40;99.90;;;;;;4991251;28;20179;-76
2023/10/23 00:49:37;;;;;;;7.50;4.70;;;13.30;99.90;;;;;;4995703;28;20205;-75
2023/10/23 00:52:03;;;;;;;6.03;4.37;;;13.30;99.90;;;;;;4995733;28;20505;-76
2023/10/23 00:54:29;;;;;;;6.40;4.37;;;13.30;99.90;;;;;;4994678;28;20421;-76
2023/10/23 00:56:56;;;;;;;9.30;4.03;;;13.20;99.90;;;;;;5023438;28;20958;-75
2023/10/23 00:59:22;;;;;;;8.93;3.80;;;13.20;99.90;;;;;;4998091;28;20445;-75
2023/10/23 01:01:47;;;;;;;6.80;3.87;;;13.20;99.90;;;;;;4996016;28;20444;-76
2023/10/23 01:04:13;;;;;;;4.80;3.83;;;13.20;99.90;;;;;;4996692;28;20513;-76
2023/10/23 01:06:39;;;;;;;6.70;3.83;;;13.10;99.90;;;;;;4994831;28;20261;-76
2023/10/23 01:09:05;;;;;;;6.07;3.93;;;13.10;99.90;;;;;;4997855;28;20193;-77
2023/10/23 01:11:32;;;;;;;5.37;4.20;;;13.10;99.90;;;;;;4997830;28;20802;-77
2023/10/23 01:13:58;;;;;;;7.00;3.90;;;13.00;99.90;;;;;;4992816;28;20444;-76
2023/10/23 01:16:23;;;;;;;6.20;3.80;;;13.00;99.90;;;;;;4997344;28;20820;-77
2023/10/23 01:18:49;;;;;;;8.57;4.03;;;13.00;99.90;;;;;;4991363;28;20735;-76
2023/10/23 01:21:15;;;;;;;5.03;3.40;;;13.00;99.90;;;;;;4992280;28;20268;-76
2023/10/23 01:23:43;;;;;;;6.73;5.43;;;12.90;99.90;;;;;;4992163;28;21443;-76
2023/10/23 01:26:08;;;;;;;5.97;3.50;;;12.90;99.90;;;;;;4994412;28;21744;-76
2023/10/23 01:28:34;;;;;;;5.60;3.07;;;12.90;99.90;;;;;;4988837;28;20901;-76
2023/10/23 01:30:59;;;;;;;7.43;3.83;;;12.80;99.90;;;;;;4989538;28;20672;-75
2023/10/23 01:33:25;;;;;;;5.90;3.63;;;12.80;99.90;;;;;;4997383;28;20223;-74
2023/10/23 01:35:51;;;;;;;7.43;3.57;;;12.70;99.90;;;;;;4994858;28;20186;-75
2023/10/23 01:38:16;;;;;;;5.20;3.40;;;12.80;99.90;;;;;;4996573;28;20192;-75
2023/10/23 01:40:42;;;;;;;4.43;3.57;;;12.80;99.90;;;;;;4994592;28;20209;-76
2023/10/23 01:43:08;;;;;;;6.37;3.20;;;12.70;99.90;;;;;;4995369;28;20217;-75
2023/10/23 01:45:33;;;;;;;5.87;4.30;;;12.70;99.90;;;;;;4995096;28;20221;-76
2023/10/23 01:47:59;;;;;;;7.03;3.07;;;12.60;99.90;;;;;;4996837;28;20679;-76
2023/10/23 01:50:25;;;;;;;5.60;3.10;;;12.60;99.90;;;;;;4989700;28;20273;-76
2023/10/23 01:52:51;;;;;;;7.23;3.60;;;12.60;99.90;;;;;;4998051;28;20188;-75
2023/10/23 01:55:16;;;;;;;6.93;3.40;;;12.60;99.90;;;;;;4993157;28;20264;-75
2023/10/23 01:57:42;;;;;;;5.47;2.80;;;12.60;99.90;;;;;;4992538;28;20511;-75
2023/10/23 02:00:10;;;;;;;5.53;3.40;;;12.60;99.90;;;;;;4993119;28;20205;-76
2023/10/23 02:02:36;;;;;;;8.00;2.83;;;12.60;99.90;;;;;;4992425;28;20177;-76
2023/10/23 02:05:03;;;;;;;8.13;3.30;;;12.50;99.90;;;;;;5000762;28;21254;-76
2023/10/23 02:07:29;;;;;;;7.00;3.40;;;12.50;99.90;;;;;;4990004;28;20446;-76
2023/10/23 02:09:58;;;;;;;4.27;3.30;;;12.40;99.90;;;;;;5000540;28;20820;-76
2023/10/23 02:12:24;;;;;;;4.20;3.03;;;12.40;99.90;;;;;;5000566;28;20462;-75
2023/10/23 02:14:52;;;;;;;6.60;3.63;;;12.40;99.90;;;;;;4996327;28;20955;-75
2023/10/23 02:17:21;;;;;;;6.23;3.27;;;12.40;99.90;;;;;;4994577;28;20424;-75
2023/10/23 02:19:47;;;;;;;6.57;2.90;;;12.40;99.90;;;;;;4990424;28;20472;-76
2023/10/23 02:22:13;;;;;;;5.77;2.87;;;12.40;99.90;;;;;;4994260;28;20435;-76
2023/10/23 02:24:39;;;;;;;5.00;3.00;;;12.40;99.90;;;;;;5024201;28;20862;-76
2023/10/23 02:27:04;;;;;;;5.30;3.47;;;12.30;99.90;;;;;;4990781;28;20190;-75
2023/10/23 02:29:30;;;;;;;5.23;3.33;;;12.40;99.90;;;;;;4990929;28;20209;-75
2023/10/23 02:31:55;;;;;;;8.27;3.20;;;12.30;99.90;;;;;;4987175;28;20194;-75
2023/10/23 02:34:21;;;;;;;6.50;3.40;;;12.40;99.90;;;;;;4987274;28;20276;-75
2023/10/23 02:36:47;;;;;;;6.23;3.20;;;12.40;99.90;;;;;;4993927;28;20192;-76
2023/10/23 02:39:12;;;;;;;6.10;2.93;;;12.40;99.90;;;;;;4997927;28;20684;-75
2023/10/23 02:41:38;;;;;;;5.07;3.07;;;12.30;99.90;;;;;;5002948;28;20193;-75
2023/10/23 02:44:05;;;;;;;6.60;3.40;;;12.30;99.90;;;;;;4991556;28;20209;-75
2023/10/23 02:46:35;;;;;;;6.17;3.30;;;12.30;99.90;;;;;;5000435;28;20187;-75
2023/10/23 02:49:01;;;;;;;5.17;3.23;;;12.30;99.90;;;;;;4998167;28;20963;-76
2023/10/23 02:51:27;;;;;;;5.50;2.97;;;12.30;99.90;;;;;;4992802;28;20437;-76
2023/10/23 02:53:53;;;;;;;5.87;3.03;;;12.20;99.90;;;;;;5001435;28;20529;-75
2023/10/23 02:56:18;;;;;;;6.73;2.80;;;12.20;99.90;;;;;;4992770;28;20946;-76
2023/10/23 02:58:44;;;;;;;6.67;3.00;;;12.20;99.90;;;;;;4998239;28;20218;-74
2023/10/23 03:01:20;;;;;;;4.90;2.87;;;12.20;99.90;;;;;;4991278;28;20189;-75
2023/10/23 03:03:47;;;;;;;6.90;3.20;;;12.20;99.90;;;;;;5001028;28;20223;-75
2023/10/23 03:06:12;;;;;;;5.10;3.10;;;12.10;99.90;;;;;;4991312;28;20432;-75
2023/10/23 03:08:38;;;;;;;8.60;2.93;;;12.10;99.90;;;;;;4996704;28;20447;-75
2023/10/23 03:11:05;;;;;;;4.13;2.73;;;12.10;99.90;;;;;;4992643;28;20439;-75
2023/10/23 03:13:31;;;;;;;4.47;2.77;;;12.10;99.90;;;;;;4992328;28;20872;-75
2023/10/23 03:15:58;;;;;;;7.10;3.40;;;12.10;99.90;;;;;;4992302;28;20554;-75
2023/10/23 03:18:23;;;;;;;4.43;2.80;;;12.10;99.90;;;;;;4999348;28;21066;-75
2023/10/23 03:20:49;;;;;;;3.67;2.30;;;12.10;99.90;;;;;;5007060;28;20194;-74
2023/10/23 03:23:14;;;;;;;8.57;3.13;;;12.10;99.90;;;;;;4996513;28;20309;-75
2023/10/23 03:25:42;;;;;;;4.80;2.93;;;12.10;99.90;;;;;;4987063;28;20558;-75
2023/10/23 03:28:08;;;;;;;3.40;2.67;;;12.10;99.90;;;;;;4989891;28;20178;-74
2023/10/23 03:30:34;;;;;;;7.70;2.90;;;12.10;99.90;;;;;;4992254;28;20563;-75
2023/10/23 03:32:59;;;;;;;4.03;2.57;;;12.10;99.90;;;;;;5019061;28;20196;-74
2023/10/23 03:35:25;;;;;;;4.63;2.63;;;12.10;99.90;;;;;;4993461;28;20310;-76
2023/10/23 03:37:50;;;;;;;4.90;3.40;;;12.10;99.90;;;;;;4994037;28;20194;-77
2023/10/23 03:40:16;;;;;;;4.30;2.73;;;12.00;99.90;;;;;;4995594;28;20284;-76
2023/10/23 03:42:42;;;;;;;5.63;2.97;;;12.00;99.90;;;;;;4998103;28;20190;-75
2023/10/23 03:45:07;;;;;;;6.30;2.77;;;12.00;99.90;;;;;;4992815;28;20209;-75
2023/10/23 03:47:33;;;;;;;5.27;2.70;;;11.90;99.90;;;;;;4988297;28;20212;-75
2023/10/23 03:49:59;;;;;;;9.27;2.60;;;11.90;99.90;;;;;;4999511;28;20632;-76
2023/10/23 03:52:24;;;;;;;5.90;2.83;;;11.90;99.90;;;;;;4997397;28;20180;-75
2023/10/23 03:54:50;;;;;;;4.03;2.70;;;11.90;99.90;;;;;;5000428;28;20304;-76
2023/10/23 03:57:15;;;;;;;4.30;2.30;;;11.90;99.90;;;;;;5001540;28;20586;-77
2023/10/23 03:59:42;;;;;;;6.50;2.77;;;11.80;99.90;;;;;;4992629;28;20213;-75
2023/10/23 04:02:08;;;;;;;3.47;2.53;;;11.80;99.90;;;;;;4987552;28;20611;-75
2023/10/23 04:04:33;;;;;;;2.83;2.20;;;11.80;99.90;;;;;;4996391;28;20506;-75
2023/10/23 04:06:59;;;;;;;2.93;2.13;;;11.70;99.90;;;;;;4992731;28;20181;-75
2023/10/23 04:09:28;;;;;;;6.23;2.60;;;11.70;99.90;;;;;;4994036;28;20201;-74
2023/10/23 04:11:54;;;;;;;5.03;2.50;;;11.70;99.90;;;;;;4994652;28;20248;-74
2023/10/23 04:14:20;;;;;;;3.47;2.40;;;11.60;99.90;;;;;;4991784;28;20443;-76
2023/10/23 04:16:46;;;;;;;4.83;2.50;;;11.60;99.90;;;;;;4998289;28;20446;-76
2023/10/23 04:19:11;;;;;;;9.20;2.30;;;11.60;99.90;;;;;;4988411;28;20844;-75
2023/10/23 04:21:39;;;;;;;4.43;2.20;;;11.60;99.90;;;;;;4994840;28;21205;-74
2023/10/23 04:24:06;;;;;;;6.70;2.37;;;11.60;99.90;;;;;;4993825;28;20285;-76
2023/10/23 04:26:32;;;;;;;7.20;2.30;;;11.60;99.90;;;;;;4992138;28;20424;-75
2023/10/23 04:28:57;;;;;;;5.83;2.57;;;11.50;99.90;;;;;;4997085;28;20448;-76
2023/10/23 04:31:23;;;;;;;3.93;2.50;;;11.50;99.90;;;;;;4988927;28;20251;-76
2023/10/23 04:33:49;;;;;;;6.13;2.60;;;11.50;99.90;;;;;;4998268;28;20184;-75
2023/10/23 04:36:14;;;;;;;4.60;2.20;;;11.50;99.90;;;;;;4995983;28;20189;-75
2023/10/23 04:38:40;;;;;;;4.27;2.17;;;11.50;99.90;;;;;;5000867;28;20224;-75
2023/10/23 04:41:05;;;;;;;6.20;2.80;;;11.50;99.90;;;;;;4990679;28;20657;-74
2023/10/23 04:43:33;;;;;;;4.50;2.60;;;11.50;99.90;;;;;;4996761;28;20205;-75
2023/10/23 04:45:58;;;;;;;4.53;2.40;;;11.50;99.90;;;;;;4989740;28;21098;-75
2023/10/23 04:48:24;;;;;;;3.90;3.27;;;11.50;99.90;;;;;;4991477;28;20432;-75
2023/10/23 04:50:50;;;;;;;4.07;2.30;;;11.50;99.90;;;;;;4993509;28;20548;-75
2023/10/23 04:53:15;;;;;;;5.40;2.20;;;11.50;99.90;;;;;;4998391;28;20835;-76
2023/10/23 04:55:42;;;;;;;5.63;2.47;;;11.40;99.90;;;;;;4995351;28;21632;-75
2023/10/23 04:58:08;;;;;;;4.77;2.57;;;11.40;99.90;;;;;;4994995;28;20304;-76
2023/10/23 05:00:38;;;;;;;3.90;2.47;;;11.40;99.90;;;;;;5019673;28;20453;-75
2023/10/23 05:03:04;;;;;;;4.10;2.50;;;11.40;99.90;;;;;;4990425;28;20888;-76
2023/10/23 05:05:31;;;;;;;5.53;3.20;;;11.40;99.90;;;;;;4989018;28;20469;-76
2023/10/23 05:07:57;;;;;;;4.43;2.30;;;11.40;99.90;;;;;;4994175;28;20421;-76
2023/10/23 05:10:23;;;;;;;4.60;2.30;;;11.40;99.90;;;;;;4992246;28;20444;-75
2023/10/23 05:12:49;;;;;;;6.03;2.70;;;11.40;99.90;;;;;;4991236;28;21175;-75
2023/10/23 05:15:16;;;;;;;3.40;2.23;;;11.30;99.90;;;;;;5019072;28;20220;-75
2023/10/23 05:17:42;;;;;;;6.20;2.60;;;11.30;99.90;;;;;;4996742;28;20424;-78
2023/10/23 05:20:08;;;;;;;3.70;2.50;;;11.30;99.90;;;;;;4989742;28;20540;-76
2023/10/23 05:22:33;;;;;;;6.27;3.00;;;11.30;99.90;;;;;;4999467;28;20196;-76
2023/10/23 05:25:00;;;;;;;3.37;2.30;;;11.30;99.90;;;;;;4994363;28;20493;-75
2023/10/23 05:27:25;;;;;;;11.50;3.20;;;11.30;99.90;;;;;;4991234;28;20189;-76
2023/10/23 05:29:51;;;;;;;6.37;2.80;;;11.30;99.90;;;;;;4990287;28;20460;-75
2023/10/23 05:32:17;;;;;;;5.20;3.23;;;11.20;99.90;;;;;;4985754;28;20252;-76
2023/10/23 05:34:45;;;;;;;4.20;2.30;;;11.30;99.90;;;;;;4992754;28;20208;-73
2023/10/23 05:37:11;;;;;;;5.83;2.53;;;11.30;99.90;;;;;;4995114;28;20188;-76
2023/10/23 05:39:37;;;;;;;3.50;2.50;;;11.30;99.90;;;;;;4986972;28;20452;-75
2023/10/23 05:42:03;;;;;;;3.93;2.40;;;11.30;99.90;;;;;;4981941;28;20440;-76
2023/10/23 05:44:28;;;;;;;4.90;2.83;;;11.30;99.90;;;;;;4984682;28;20223;-76
2023/10/23 05:46:54;;;;;;;7.13;3.20;;;11.30;99.90;;;;;;4998723;28;20531;-75
2023/10/23 05:49:20;;;;;;;10.07;2.93;;;11.30;99.90;;;;;;4992710;28;20209;-76
2023/10/23 05:51:45;;;;;;;6.23;2.70;;;11.30;99.90;;;;;;4991859;28;20181;-75
2023/10/23 05:54:11;;;;;;;3.97;2.50;;;11.30;99.90;;;;;;4993565;28;20177;-75
2023/10/23 05:56:37;;;;;;;5.93;3.10;;;11.30;99.90;;;;;;4999377;28;20209;-75
2023/10/23 05:59:03;;;;;;;6.97;2.80;;;11.20;99.90;;;;;;4989578;28;20396;-75
2023/10/23 06:01:29;;;;;;;5.43;2.60;;;11.20;99.90;;;;;;4992091;28;20805;-76
2023/10/23 06:03:55;;;;;;;7.57;3.40;;;11.20;99.90;;;;;;4991515;28;20495;-76
2023/10/23 06:06:20;;;;;;;7.23;3.30;;;11.20;99.90;;;;;;4984916;28;20461;-75
2023/10/23 06:08:46;;;;;;;9.33;3.30;;;11.20;99.90;;;;;;4991332;28;20835;-76
2023/10/23 06:11:12;;;;;;;6.90;3.20;;;11.20;99.90;;;;;;4987900;28;20228;-77
2023/10/23 06:13:38;;;;;;;10.27;4.03;;;11.20;99.90;;;;;;4999022;28;20653;-76
2023/10/23 06:16:04;;;;;;;5.07;3.33;;;11.20;99.90;;;;;;5020909;28;20447;-77
2023/10/23 06:18:34;;;;;;;6.63;3.17;;;11.20;99.90;;;;;;4993294;28;20432;-78
2023/10/23 06:21:04;;;;;;;7.67;4.43;;;11.20;99.90;;;;;;5000039;28;20467;-78
2023/10/23 06:23:37;;;;;;;8.03;4.83;;;11.20;99.90;;;;;;5002137;28;20466;-77
2023/10/23 06:26:07;;;;;;;15.03;8.47;;;11.20;99.90;;;;;;4986712;28;20431;-77
2023/10/23 06:28:34;;;;;;;5.80;3.63;;;11.20;99.90;;;;;;4988598;28;20578;-76
2023/10/23 06:31:06;;;;;;;7.20;3.43;;;11.20;99.90;;;;;;4994269;28;20432;-77
2023/10/23 06:33:32;;;;;;;7.53;5.27;;;11.20;99.90;;;;;;4993184;28;21333;-78
2023/10/23 06:35:59;;;;;;;10.80;4.10;;;11.20;99.90;;;;;;4992442;28;20467;-77
2023/10/23 06:38:24;;;;;;;7.40;3.90;;;11.20;99.90;;;;;;4991060;28;20510;-76
2023/10/23 06:40:50;;;;;;;10.10;6.50;;;11.20;99.90;;;;;;4991061;28;21099;-75
2023/10/23 06:43:16;;;;;;;14.17;6.97;;;11.20;99.90;;;;;;4992402;28;20263;-75
2023/10/23 06:45:42;;;;;;;14.73;8.70;;;11.30;99.90;;;;;;4997537;28;20223;-75
2023/10/23 06:48:07;;;;;;;8.23;5.20;;;11.30;99.90;;;;;;4992695;28;20177;-76
2023/10/23 06:50:33;;;;;;;12.57;7.53;;;11.30;99.90;;;;;;4990596;28;20468;-71
2023/10/23 06:52:59;;;;;;;7.73;3.73;;;11.40;99.90;;;;;;4991340;28;20712;-72
2023/10/23 06:55:27;;;;;;;7.20;3.60;;;11.40;99.90;;;;;;4985293;28;20191;-72
2023/10/23 06:57:53;;;;;;;4.07;3.17;;;11.50;99.90;;;;;;4990570;28;20510;-71
2023/10/23 07:00:19;;;;;;;5.80;3.53;;;11.50;99.90;;;;;;4991139;28;20972;-72
2023/10/23 07:02:48;;;;;;;5.97;3.60;;;11.60;99.90;;;;;;4997675;28;20336;-73
2023/10/23 07:05:14;;;;;;;8.30;3.53;;;11.60;99.90;;;;;;4992164;28;20475;-72
2023/10/23 07:07:39;;;;;;;14.90;3.63;;;11.60;99.90;;;;;;4990015;28;20420;-72
2023/10/23 07:10:06;;;;;;;7.70;4.10;;;11.60;99.90;;;;;;4993000;28;20194;-71
2023/10/23 07:12:32;;;;;;;9.40;5.50;;;11.70;99.90;;;;;;4997338;28;20293;-72
2023/10/23 07:14:58;;;;;;;8.93;3.73;;;11.70;99.90;;;;;;4993448;28;20522;-72
2023/10/23 07:17:23;;;;;;;6.57;3.60;;;11.70;99.90;;;;;;4989337;28;20427;-73
2023/10/23 07:19:50;;;;;;;6.90;3.27;;;11.80;99.90;;;;;;4988683;28;20209;-72
2023/10/23 07:22:16;;;;;;;7.03;3.23;;;11.90;99.90;;;;;;4987910;28;20197;-72
2023/10/23 07:24:42;;;;;;;7.43;3.80;;;12.00;99.90;;;;;;4993090;28;20465;-72
2023/10/23 07:27:11;;;;;;;6.40;3.67;;;12.00;99.90;;;;;;4995098;28;20205;-73
2023/10/23 07:29:37;;;;;;;7.60;4.07;;;12.00;99.90;;;;;;4998128;28;20288;-71
2023/10/23 07:32:03;;;;;;;7.97;4.07;;;12.10;99.90;;;;;;4995908;28;20508;-72
2023/10/23 07:34:29;;;;;;;6.90;3.77;;;12.10;99.90;;;;;;4996390;28;20209;-72
2023/10/23 07:36:54;;;;;;;9.70;4.10;;;12.20;99.90;;;;;;5025281;28;20865;-71
2023/10/23 07:39:20;;;;;;;9.27;4.27;;;12.20;99.90;;;;;;4998939;28;20241;-72
2023/10/23 07:41:45;;;;;;;11.50;4.10;;;12.30;99.90;;;;;;4993631;28;20287;-72
2023/10/23 07:44:11;;;;;;;6.57;3.47;;;12.30;99.90;;;;;;4994429;28;20205;-71
2023/10/23 07:46:37;;;;;;;8.13;4.20;;;12.30;99.90;;;;;;4997262;28;20940;-72
2023/10/23 07:49:02;;;;;;;9.40;4.67;;;12.30;99.90;;;;;;4994269;28;20629;-72
2023/10/23 07:51:28;;;;;;;7.43;4.27;;;12.30;99.90;;;;;;4974045;28;20296;-73
2023/10/23 07:53:54;;;;;;;5.63;4.57;;;12.40;99.90;;;;;;4995072;28;20933;-73
2023/10/23 07:56:19;;;;;;;6.20;3.83;;;12.40;99.90;;;;;;5019406;28;20181;-71
2023/10/23 07:58:45;;;;;;;8.00;4.70;;;12.40;99.90;;;;;;4995226;28;20209;-71
2023/10/23 08:01:12;;;;;;;8.03;4.37;;;12.40;99.90;;;;;;4994354;28;20197;-71
2023/10/23 08:03:38;;;;;;;8.37;5.30;;;12.40;99.90;;;;;;4995994;28;20239;-72
2023/10/23 08:06:06;;;;;;;6.40;4.27;;;12.50;99.90;;;;;;4993480;28;20432;-71
2023/10/23 08:08:34;;;;;;;7.07;5.30;;;12.50;99.90;;;;;;4993598;28;20546;-72
2023/10/23 08:11:01;;;;;;;12.03;5.73;;;12.50;99.90;;;;;;4996703;28;20412;-71
2023/10/23 08:13:27;;;;;;;11.00;5.37;;;12.60;99.90;;;;;;4997507;28;20468;-73
2023/10/23 08:15:53;;;;;;;7.20;4.87;;;12.60;99.90;;;;;;4994571;28;21029;-72
2023/10/23 08:18:18;;;;;;;8.70;5.10;;;12.60;99.90;;;;;;4982328;28;20301;-72
2023/10/23 08:20:44;;;;;;;7.33;4.90;;;12.70;99.90;;;;;;4990846;28;20424;-72
2023/10/23 08:23:09;;;;;;;5.03;4.27;;;12.70;99.90;;;;;;4986289;28;20636;-73
2023/10/23 08:25:35;;;;;;;8.13;4.70;;;12.80;99.90;;;;;;4984602;28;20221;-73
2023/10/23 08:28:02;;;;;;;6.93;4.47;;;12.80;99.90;;;;;;4991333;28;20198;-72
2023/10/23 08:30:27;;;;;;;7.80;4.00;;;12.90;99.90;;;;;;4987367;28;20197;-73
2023/10/23 08:32:53;;;;;;;6.67;4.67;;;12.90;99.90;;;;;;4986651;28;21345;-73
2023/10/23 08:35:19;;;;;;;9.70;4.37;;;13.00;99.90;;;;;;4990996;28;20190;-74
2023/10/23 08:37:45;;;;;;;7.10;5.23;;;13.00;99.90;;;;;;5016796;28;20242;-73
2023/10/23 08:40:11;;;;;;;4.90;3.80;;;13.10;99.90;;;;;;4987591;28;20453;-73
2023/10/23 08:42:37;;;;;;;14.40;4.77;;;13.10;99.90;;;;;;4992571;28;20200;-74
2023/10/23 08:45:03;;;;;;;8.83;5.30;;;13.20;99.90;;;;;;4990084;28;20459;-72
2023/10/23 08:47:29;;;;;;;7.37;4.47;;;13.30;99.90;;;;;;4988746;28;20196;-75
2023/10/23 08:49:59;;;;;;;10.33;5.50;;;13.30;99.90;;;;;;4995012;28;20505;-74
2023/10/23 08:52:27;;;;;;;11.03;4.77;;;13.30;99.90;;;;;;4986507;28;20529;-74
2023/10/23 08:54:54;;;;;;;7.70;4.87;;;13.40;99.90;;;;;;4989666;28;20869;-74
2023/10/23 08:57:23;;;;;;;8.23;5.30;;;13.40;99.90;;;;;;4996881;28;20448;-73
2023/10/23 08:59:48;;;;;;;5.37;4.07;;;13.40;99.90;;;;;;4988943;28;20548;-75
2023/10/23 09:02:14;;;;;;;9.70;4.57;;;13.50;99.90;;;;;;4987895;28;20524;-75
2023/10/23 09:04:40;;;;;;;8.83;4.50;;;13.50;99.90;;;;;;5015214;28;20673;-74
2023/10/23 09:07:06;;;;;;;6.83;5.07;;;13.50;99.90;;;;;;4991439;28;20431;-74
2023/10/23 09:09:31;;;;;;;9.00;5.27;;;13.60;99.90;;;;;;4989343;28;20232;-73
2023/10/23 09:11:57;;;;;;;9.57;4.80;;;13.70;99.90;;;;;;5014714;28;20185;-74
2023/10/23 09:14:28;;;;;;;7.90;4.73;;;13.70;99.90;;;;;;4988390;28;20279;-74
2023/10/23 09:16:56;;;;;;;7.60;4.40;;;13.80;99.90;;;;;;4996468;28;20185;-73
2023/10/23 09:19:40;;;;;;;8.67;4.47;;;13.80;99.90;;;;;;4987721;28;20522;-74
2023/10/23 09:22:12;;;;;;;10.90;4.20;;;13.90;99.90;;;;;;4995853;28;20432;-73
2023/10/23 09:24:38;;;;;;;6.97;4.67;;;13.90;99.90;;;;;;4986509;28;20530;-74
2023/10/23 09:27:04;;;;;;;8.83;4.23;;;13.90;99.90;;;;;;4996007;28;20428;-73
2023/10/23 09:29:29;;;;;;;10.43;4.60;;;13.90;99.90;;;;;;5002053;28;20219;-73
2023/10/23 09:31:59;;;;;;;8.17;4.90;;;14.00;99.90;;;;;;4992445;28;20444;-74
2023/10/23 09:34:25;;;;;;;6.80;4.67;;;14.10;99.90;;;;;;4992962;28;20193;-71
2023/10/23 09:36:52;;;;;;;8.20;5.00;;;14.10;99.90;;;;;;4993047;28;20435;-73
2023/10/23 09:39:23;;;;;;;8.70;4.50;;;14.20;99.90;;;;;;4989638;28;20874;-72
2023/10/23 09:41:49;;;;;;;7.23;4.93;;;14.30;99.90;;;;;;4991564;28;20447;-72
2023/10/23 09:44:16;;;;;;;9.23;4.97;;;14.30;99.90;;;;;;4989861;28;22690;-72
2023/10/23 09:46:45;;;;;;;7.53;4.23;;;14.40;99.90;;;;;;4994949;28;20476;-73
2023/10/23 09:49:10;;;;;;;7.57;3.77;;;14.40;99.90;;;;;;4997123;28;20468;-73
2023/10/23 09:51:39;;;;;;;7.90;5.10;;;14.50;99.90;;;;;;4993239;28;20830;-74
2023/10/23 09:54:15;;;;;;;8.90;4.13;;;14.50;99.90;;;;;;4991841;28;20252;-75
2023/10/23 09:56:53;;;;;;;5.87;3.97;;;14.50;99.90;;;;;;4985820;28;20447;-74
2023/10/23 09:59:25;;;;;;;7.00;4.10;;;14.60;99.90;;;;;;4990675;28;20482;-74
2023/10/23 10:01:52;;;;;;;7.33;4.37;;;14.70;99.90;;;;;;4986902;28;20509;-73
2023/10/23 10:04:25;;;;;;;5.47;4.07;;;14.70;99.90;;;;;;4987835;28;21487;-73
2023/10/23 10:06:54;;;;;;;5.93;3.87;;;14.80;99.90;;;;;;4989699;28;20435;-73
2023/10/23 10:09:22;;;;;;;9.30;4.07;;;14.80;99.90;;;;;;4994933;28;21043;-73
2023/10/23 10:11:48;;;;;;;9.40;5.37;;;14.80;99.90;;;;;;4987253;28;20513;-73
2023/10/23 10:14:16;;;;;;;7.60;5.83;;;14.80;99.90;;;;;;4991044;28;20432;-74
2023/10/23 10:16:42;;;;;;;7.73;4.23;;;14.80;99.90;;;;;;4995570;28;20931;-74
2023/10/23 10:19:08;;;;;;;6.47;4.33;;;14.80;99.90;;;;;;4991493;28;20444;-73
2023/10/23 10:21:44;;;;;;;9.93;4.60;;;14.90;99.90;;;;;;4989498;28;20189;-73
2023/10/23 10:24:10;;;;;;;7.90;3.80;;;14.90;99.90;;;;;;4988909;28;20514;-72
2023/10/23 10:26:36;;;;;;;6.23;3.50;;;14.90;99.90;;;;;;4991896;28;20432;-72
2023/10/23 10:29:03;;;;;;;6.30;4.10;;;15.00;99.90;;;;;;4990934;28;20484;-73
2023/10/23 10:31:28;;;;;;;8.70;6.17;;;15.00;99.90;;;;;;4992583;28;20462;-73
2023/10/23 10:33:54;;;;;;;8.10;4.80;;;15.00;99.90;;;;;;4992742;28;21391;-72
2023/10/23 10:36:25;;;;;;;5.23;4.10;;;15.00;99.90;;;;;;4991674;28;20186;-73
2023/10/23 10:38:51;;;;;;;5.23;3.53;;;15.10;99.90;;;;;;4990597;28;20228;-73
2023/10/23 10:41:18;;;;;;;5.70;3.60;;;15.10;99.90;;;;;;4994321;28;20487;-73
2023/10/23 10:43:51;;;;;;;7.43;3.90;;;15.20;99.90;;;;;;4994780;28;20241;-73
2023/10/23 10:46:25;;;;;;;11.67;4.03;;;15.20;99.90;;;;;;4990292;28;20436;-73
2023/10/23 10:48:52;;;;;;;6.50;3.70;;;15.20;99.90;;;;;;4997931;28;21013;-73
2023/10/23 10:51:27;;;;;;;7.37;3.80;;;15.30;99.90;;;;;;4991581;28;20460;-72
2023/10/23 10:54:00;;;;;;;8.30;3.50;;;15.30;99.90;;;;;;4988667;28;20986;-72
2023/10/23 10:56:26;;;;;;;11.23;3.90;;;15.40;99.90;;;;;;4991282;28;20444;-71
2023/10/23 10:58:52;;;;;;;8.60;3.47;;;15.50;99.90;;;;;;4990857;28;20567;-72
2023/10/23 11:01:21;;;;;;;7.40;3.47;;;15.50;99.90;;;;;;4985388;28;20441;-72
2023/10/23 11:03:47;;;;;;;10.77;3.60;;;15.70;99.90;;;;;;4991303;28;20259;-72
2023/10/23 11:06:12;;;;;;;7.00;3.47;;;15.70;99.90;;;;;;4989787;28;20425;-72
2023/10/23 11:08:40;;;;;;;8.20;3.90;;;15.80;99.90;;;;;;5001320;28;20197;-73
2023/10/23 11:11:06;;;;;;;6.77;3.87;;;15.90;99.90;;;;;;4996032;28;20232;-74
2023/10/23 11:13:34;;;;;;;6.70;3.60;;;15.90;99.90;;;;;;4996457;28;20799;-74
2023/10/23 11:16:00;;;;;;;9.97;3.73;;;16.00;99.90;;;;;;4992515;28;20474;-74
2023/10/23 11:18:28;;;;;;;7.70;3.67;;;16.10;99.90;;;;;;4995642;28;20424;-73
2023/10/23 11:21:00;;;;;;;8.60;3.73;;;16.20;99.90;;;;;;4994437;28;20503;-73
2023/10/23 11:23:30;;;;;;;10.07;3.40;;;16.30;99.90;;;;;;4990270;28;20519;-75
2023/10/23 11:25:55;;;;;;;5.87;3.97;;;16.30;99.90;;;;;;4991676;28;20469;-74
2023/10/23 11:28:22;;;;;;;7.53;3.70;;;16.40;99.90;;;;;;4991820;28;20433;-73
2023/10/23 11:30:53;;;;;;;7.30;3.30;;;16.40;99.90;;;;;;4990656;28;20178;-74
2023/10/23 11:33:19;;;;;;;9.00;3.87;;;16.40;99.90;;;;;;4999467;28;20421;-73
2023/10/23 11:35:45;;;;;;;4.67;3.23;;;16.40;99.90;;;;;;4998535;28;20860;-74
2023/10/23 11:38:15;;;;;;;6.30;3.53;;;16.40;99.90;;;;;;5000311;28;20530;-75
2023/10/23 11:40:42;;;;;;;5.93;3.30;;;16.40;99.90;;;;;;5009086;28;20193;-76
2023/10/23 11:43:13;;;;;;;4.80;3.50;;;16.40;99.90;;;;;;5002842;28;20422;-74
2023/10/23 11:45:39;;;;;;;6.30;3.13;;;16.40;99.90;;;;;;4999473;28;20494;-73
2023/10/23 11:48:06;;;;;;;7.67;3.60;;;16.40;99.90;;;;;;4998368;28;20424;-73
2023/10/23 11:50:33;;;;;;;6.70;3.53;;;16.40;99.90;;;;;;4996500;28;20447;-75
2023/10/23 11:52:59;;;;;;;6.07;3.17;;;16.40;99.90;;;;;;4995237;28;20437;-75
2023/10/23 11:55:25;;;;;;;6.47;3.87;;;16.30;99.90;;;;;;4989318;28;20983;-75
2023/10/23 11:57:51;;;;;;;11.53;3.70;;;16.30;99.90;;;;;;4993251;28;20436;-73
2023/10/23 12:00:19;;;;;;;8.50;3.57;;;16.30;99.90;;;;;;4989959;28;20955;-72
2023/10/23 12:02:46;;;;;;;5.00;3.07;;;16.20;99.90;;;;;;4995319;28;20225;-75
2023/10/23 12:05:15;;;;;;;4.70;3.87;;;16.20;99.90;;;;;;4996462;28;20472;-76
2023/10/23 12:07:42;;;;;;;6.60;3.40;;;16.20;99.90;;;;;;4995073;28;20814;-73
2023/10/23 12:10:09;;;;;;;5.17;3.23;;;16.10;99.90;;;;;;4996908;28;20492;-71
2023/10/23 12:12:35;;;;;;;6.10;3.10;;;16.10;99.90;;;;;;4989473;28;20481;-72
2023/10/23 12:15:03;;;;;;;6.73;3.70;;;16.10;99.90;;;;;;4989416;28;20552;-72
2023/10/23 12:17:29;;;;;;;10.67;4.40;;;16.10;99.90;;;;;;5001190;28;20432;-72
2023/10/23 12:19:54;;;;;;;7.17;3.53;;;16.10;99.90;;;;;;4989762;28;20632;-73
2023/10/23 12:22:20;;;;;;;9.70;3.67;;;16.10;99.90;;;;;;4991521;28;20188;-73
2023/10/23 12:24:46;;;;;;;5.27;3.30;;;16.10;99.90;;;;;;4993829;28;20205;-72
2023/10/23 12:27:11;;;;;;;4.90;3.20;;;16.10;99.90;;;;;;4996478;28;20173;-73
2023/10/23 12:29:37;;;;;;;5.60;3.30;;;16.10;99.90;;;;;;4995619;28;20255;-74
2023/10/23 12:32:04;;;;;;;9.50;4.10;;;16.10;99.90;;;;;;4998799;28;20255;-73
2023/10/23 12:34:30;;;;;;;5.10;3.00;;;16.10;99.90;;;;;;4994443;28;20185;-72
2023/10/23 12:36:57;;;;;;;6.80;3.63;;;16.20;99.90;;;;;;4982734;28;20997;-73
2023/10/23 12:39:22;;;;;;;6.73;3.90;;;16.10;99.90;;;;;;4990653;28;20458;-74
2023/10/23 12:41:48;;;;;;;5.57;3.40;;;16.10;99.90;;;;;;4979619;28;20962;-72